Time;durP1;ratioP1;P1;durP2;ratioP2;P2;SDS_P1;SDS_P2;PMS_P1;PMS_P2;Temp;Humidity;BMP_temperature;BMP_pressure;BME280_temperature;BME280_humidity;BME280_pressure;Samples;Min_cycle;Max_cycle;Signal;HPM_P1;HPM_P2
2021/08/27 00:01:23;;;;;;;1.40;1.10;;;;;;;13.86;75.80;100530.36;1661873;86;21037;-89
2021/08/27 00:03:50;;;;;;;3.42;1.87;;;;;;;13.90;76.00;100532.15;1663076;86;21809;-87
2021/08/27 00:06:17;;;;;;;1.80;1.32;;;;;;;13.91;75.89;100531.73;1662815;85;21028;-86
2021/08/27 00:08:44;;;;;;;3.55;1.42;;;;;;;13.89;75.77;100530.81;1661063;86;21046;-87
2021/08/27 00:11:11;;;;;;;4.95;1.40;;;;;;;13.86;75.82;100522.87;1661083;86;21009;-87
2021/08/27 00:13:38;;;;;;;2.98;1.25;;;;;;;13.84;75.80;100532.55;1660897;86;21026;-88
2021/08/27 00:16:05;;;;;;;3.08;1.80;;;;;;;13.79;75.83;100533.82;1660906;86;21756;-88
2021/08/27 00:18:31;;;;;;;3.15;2.10;;;;;;;13.78;75.90;100530.74;1609599;87;21021;-86
2021/08/27 00:21:00;;;;;;;3.95;1.92;;;;;;;13.78;76.05;100528.98;1658435;86;21022;-86
2021/08/27 00:23:28;;;;;;;4.30;1.77;;;;;;;13.79;75.98;100524.16;1625324;86;21063;-87
2021/08/27 00:25:55;;;;;;;7.42;1.85;;;;;;;13.79;76.03;100525.48;1658534;86;20994;-87
2021/08/27 00:28:22;;;;;;;2.08;1.50;;;;;;;13.80;76.07;100527.23;1658583;85;21760;-87
2021/08/27 00:30:49;;;;;;;6.10;2.55;;;;;;;13.82;76.08;100529.02;1658476;86;21043;-87
2021/08/27 00:33:16;;;;;;;3.80;2.15;;;;;;;13.83;76.14;100526.36;1658560;86;21019;-88
2021/08/27 00:35:44;;;;;;;2.72;1.62;;;;;;;13.84;76.12;100530.78;1657886;86;21110;-86
2021/08/27 00:38:15;;;;;;;2.62;1.77;;;;;;;13.85;76.11;100531.25;1658581;86;20963;-87
2021/08/27 00:40:44;;;;;;;3.12;2.27;;;;;;;13.88;76.16;100534.34;1658391;86;21009;-87
2021/08/27 00:43:12;;;;;;;4.92;2.22;;;;;;;13.92;76.24;100534.81;1658548;86;21445;-86
2021/08/27 00:45:45;;;;;;;5.75;2.80;;;;;;;13.92;76.24;100530.84;1658578;86;21078;-86
2021/08/27 00:48:15;;;;;;;8.25;2.65;;;;;;;13.95;76.30;100533.53;1658695;86;21441;-86
2021/08/27 00:50:42;;;;;;;4.25;2.90;;;;;;;13.94;76.27;100541.87;1658508;86;21094;-88
2021/08/27 00:53:09;;;;;;;6.33;3.17;;;;;;;13.95;76.38;100543.66;1658519;85;21786;-88
2021/08/27 00:55:36;;;;;;;8.03;2.60;;;;;;;13.94;76.38;100542.33;1658425;86;21039;-87
2021/08/27 00:58:04;;;;;;;5.53;3.10;;;;;;;13.94;76.43;100550.27;1658588;84;20977;-89
2021/08/27 01:00:34;;;;;;;5.22;2.87;;;;;;;13.92;76.38;100550.69;1658259;86;21591;-88
2021/08/27 01:03:02;;;;;;;3.85;2.50;;;;;;;13.90;76.40;100554.64;1658503;85;21010;-87
2021/08/27 01:05:30;;;;;;;9.10;3.58;;;;;;;13.90;76.39;100553.31;1658566;86;21764;-87
2021/08/27 01:08:22;;;;;;;4.42;3.22;;;;;;;13.89;76.43;100553.30;1658439;86;21518;-87
2021/08/27 01:10:54;;;;;;;;;;;;;;;13.88;76.48;100554.19;1660995;86;20996;-87
2021/08/27 01:13:27;;;;;;;5.72;2.98;;;;;;;13.90;76.61;100564.34;1658047;85;20688;-87
2021/08/27 01:16:12;;;;;;;5.08;3.15;;;;;;;13.91;76.61;100567.02;1646882;86;21509;-87
2021/08/27 01:19:18;;;;;;;4.12;2.80;;;;;;;13.92;76.65;100563.92;1658372;84;21754;-88
2021/08/27 01:22:28;;;;;;;4.20;2.75;;;;;;;13.91;76.66;100570.11;1657662;86;21124;-88
2021/08/27 01:24:56;;;;;;;4.37;3.17;;;;;;;13.87;76.63;100570.92;1658579;86;21045;-87
2021/08/27 01:27:24;;;;;;;5.92;3.45;;;;;;;13.82;76.64;100577.95;1659059;86;21014;-86
2021/08/27 01:30:08;;;;;;;6.92;3.83;;;;;;;13.75;76.64;100577.88;1641793;85;21540;-89
2021/08/27 01:32:46;;;;;;;7.45;3.52;;;;;;;13.71;76.72;100585.78;1660859;86;21743;-88
2021/08/27 01:35:14;;;;;;;6.05;3.77;;;;;;;13.69;76.87;100587.53;1660162;86;21022;-87
2021/08/27 01:37:51;;;;;;;6.22;3.72;;;;;;;13.67;76.98;100595.45;1660829;86;21106;-88
2021/08/27 01:40:21;;;;;;;4.60;3.33;;;;;;;13.67;77.13;100593.25;1660085;86;21484;-88
2021/08/27 01:42:47;;;;;;;5.45;3.40;;;;;;;13.68;77.22;100596.33;1634947;87;21061;-88
2021/08/27 01:45:18;;;;;;;5.22;4.03;;;;;;;13.67;77.19;100599.41;1658270;85;22465;-87
2021/08/27 01:47:45;;;;;;;6.25;3.52;;;;;;;13.67;77.25;100602.50;1626270;86;21054;-87
2021/08/27 01:50:12;;;;;;;5.22;3.92;;;;;;;13.66;77.25;100600.27;1658985;85;21489;-87
2021/08/27 01:52:43;;;;;;;5.45;3.80;;;;;;;13.69;77.34;100606.05;1647940;85;21062;-87
2021/08/27 01:55:10;;;;;;;4.80;3.83;;;;;;;13.69;77.27;100609.57;1658481;86;21007;-89
2021/08/27 01:57:39;;;;;;;5.08;3.55;;;;;;;13.68;77.31;100609.11;1658414;86;21745;-89
2021/08/27 02:00:08;;;;;;;6.75;4.20;;;;;;;13.69;77.31;100606.92;1658423;86;21042;-89
2021/08/27 02:02:35;;;;;;;8.60;4.17;;;;;;;13.68;77.38;100605.14;1625588;86;21094;-89
2021/08/27 02:05:04;;;;;;;6.75;3.83;;;;;;;13.71;77.40;100617.53;1658508;86;20998;-88
2021/08/27 02:07:33;;;;;;;5.85;4.37;;;;;;;13.70;77.44;100621.03;1658502;86;21052;-89
2021/08/27 02:10:00;;;;;;;9.08;4.08;;;;;;;13.71;77.50;100617.08;1658419;86;21757;-88
2021/08/27 02:12:26;;;;;;;7.87;4.37;;;;;;;13.70;77.48;100616.65;1658434;86;21075;-88
2021/08/27 02:14:55;;;;;;;6.85;4.17;;;;;;;13.71;77.48;100618.84;1625208;86;21054;-89
2021/08/27 02:17:24;;;;;;;9.10;4.58;;;;;;;13.72;77.59;100619.28;1658460;86;20991;-89
2021/08/27 02:19:51;;;;;;;7.53;4.90;;;;;;;13.73;77.53;100625.92;1658494;86;21680;-87
2021/08/27 02:22:22;;;;;;;6.50;4.37;;;;;;;13.74;77.53;100621.50;1658450;84;21841;-88
2021/08/27 02:25:00;;;;;;;5.87;4.45;;;;;;;13.75;77.60;100618.88;1658420;86;21512;-88
2021/08/27 02:27:27;;;;;;;7.30;4.33;;;;;;;13.79;77.66;100619.80;1658524;84;21053;-88
2021/08/27 02:29:55;;;;;;;6.95;4.35;;;;;;;13.80;77.67;100618.50;1658451;86;21023;-88
2021/08/27 02:32:23;;;;;;;6.25;4.33;;;;;;;13.82;77.63;100615.00;1657828;84;21090;-87
2021/08/27 02:34:50;;;;;;;11.35;4.70;;;;;;;13.83;77.58;100621.59;1658465;86;21753;-88
2021/08/27 02:37:18;;;;;;;5.53;3.90;;;;;;;13.82;77.61;100617.64;1658361;86;21540;-88
2021/08/27 02:39:48;;;;;;;6.58;4.55;;;;;;;13.83;77.56;100616.75;1647793;85;21042;-89
2021/08/27 02:42:13;;;;;;;7.25;4.37;;;;;;;13.81;77.59;100615.41;1657427;84;21079;-89
2021/08/27 02:44:42;;;;;;;9.20;4.60;;;;;;;13.80;77.61;100619.82;1624958;86;21039;-89
2021/08/27 02:47:13;;;;;;;5.62;4.50;;;;;;;13.79;77.60;100621.13;1658465;86;21830;-89
2021/08/27 02:49:37;;;;;;;10.18;5.45;;;;;;;13.78;77.61;100624.22;1657204;86;21163;-88
2021/08/27 02:52:32;;;;;;;9.05;5.80;;;;;;;13.77;77.62;100622.42;1626428;86;21015;-88
2021/08/27 02:55:22;;;;;;;9.28;4.90;;;;;;;13.76;77.64;100621.99;1657765;86;21106;-87
2021/08/27 02:58:17;;;;;;;8.63;5.72;;;;;;;13.75;77.69;100621.97;1658458;86;21043;-88
2021/08/27 03:01:09;;;;;;;11.60;7.12;;;;;;;13.77;77.78;100628.16;1658458;85;21753;-88
2021/08/27 03:03:40;;;;;;;9.55;6.05;;;;;;;13.77;77.75;100626.39;1658533;86;21031;-87
2021/08/27 03:06:20;;;;;;;9.93;6.35;;;;;;;13.78;77.78;100626.86;1658578;86;21053;-87
2021/08/27 03:08:53;;;;;;;10.82;6.50;;;;;;;13.78;77.78;100625.54;1658363;85;21010;-87
2021/08/27 03:11:28;;;;;;;12.23;6.67;;;;;;;13.78;77.80;100625.54;1658655;85;21477;-87
2021/08/27 03:14:05;;;;;;;10.90;6.50;;;;;;;13.78;77.78;100626.86;1658576;86;21755;-86
2021/08/27 03:16:32;;;;;;;8.73;6.28;;;;;;;13.78;77.78;100632.15;1658566;84;20968;-86
2021/08/27 03:19:10;;;;;;;11.85;5.67;;;;;;;13.77;77.77;100623.75;1625671;86;21461;-86
2021/08/27 03:21:48;;;;;;;13.32;6.05;;;;;;;13.76;77.77;100618.47;1658053;86;21030;-86
2021/08/27 03:24:36;;;;;;;8.85;6.33;;;;;;;13.76;77.76;100619.34;1658796;86;21018;-88
2021/08/27 03:27:11;;;;;;;14.18;6.33;;;;;;;13.76;77.81;100619.34;1625306;86;21133;-88
2021/08/27 03:29:40;;;;;;;10.85;6.35;;;;;;;13.77;77.77;100626.84;1658498;86;21023;-87
2021/08/27 03:32:08;;;;;;;9.65;6.33;;;;;;;13.75;77.78;100625.49;1658605;86;21106;-86
2021/08/27 03:34:38;;;;;;;9.55;5.85;;;;;;;13.75;77.79;100630.78;1658381;86;21628;-86
2021/08/27 03:37:05;;;;;;;10.60;5.75;;;;;;;13.75;77.86;100636.08;1659246;84;21125;-87
2021/08/27 03:39:32;;;;;;;9.68;6.00;;;;;;;13.76;77.90;100635.66;1639029;87;21805;-88
2021/08/27 03:42:04;;;;;;;8.40;6.17;;;;;;;13.76;77.88;100644.48;1658254;86;20979;-87
2021/08/27 03:44:31;;;;;;;9.43;6.22;;;;;;;13.77;77.93;100646.23;1647851;86;21858;-85
2021/08/27 03:46:58;;;;;;;8.90;5.78;;;;;;;13.80;77.95;100645.40;1658534;86;21504;-86
2021/08/27 03:49:32;;;;;;;8.93;6.03;;;;;;;13.80;77.86;100652.02;1658536;86;21046;-87
2021/08/27 03:51:58;;;;;;;;;;;;;;;13.80;77.87;100652.02;1661072;86;21695;-88
2021/08/27 03:54:26;;;;;;;9.60;6.03;;;;;;;13.80;77.95;100652.02;1654724;85;20475;-88
2021/08/27 03:56:53;;;;;;;10.28;6.12;;;;;;;13.80;77.95;100650.69;1658468;86;21103;-88
2021/08/27 03:59:21;;;;;;;6.67;5.60;;;;;;;13.82;77.96;100653.36;1658507;86;21501;-88
2021/08/27 04:01:50;;;;;;;13.30;6.33;;;;;;;13.84;78.03;100651.16;1658563;86;21512;-87
2021/08/27 04:04:23;;;;;;;9.03;6.33;;;;;;;13.84;78.02;100649.84;1658574;84;21835;-88
2021/08/27 04:07:03;;;;;;;7.50;5.70;;;;;;;13.86;78.04;100649.42;1657923;86;20999;-87
2021/08/27 04:09:31;;;;;;;8.05;5.87;;;;;;;13.90;78.03;100651.66;1658098;84;21493;-88
2021/08/27 04:11:58;;;;;;;12.30;6.42;;;;;;;13.92;78.00;100653.44;1658561;86;21007;-88
2021/08/27 04:14:25;;;;;;;10.63;6.03;;;;;;;13.94;78.03;100660.95;1658582;86;21015;-90
2021/08/27 04:17:04;;;;;;;11.60;5.55;;;;;;;13.98;78.06;100657.91;1658733;86;21755;-91
2021/08/27 04:19:34;;;;;;;9.65;5.45;;;;;;;14.02;78.04;100660.14;1627996;86;21015;-90
2021/08/27 04:22:05;;;;;;;6.50;4.95;;;;;;;14.05;78.00;100649.16;1658846;86;21020;-91
2021/08/27 04:24:30;;;;;;;8.95;5.35;;;;;;;14.08;77.99;100658.91;1658185;84;21231;-89
2021/08/27 04:26:57;;;;;;;10.75;5.85;;;;;;;14.09;77.92;100652.72;1658689;84;21622;-91
2021/08/27 04:29:26;;;;;;;14.33;7.00;;;;;;;14.11;77.89;100661.11;1652380;84;21760;-91
2021/08/27 04:31:56;;;;;;;9.90;5.55;;;;;;;14.14;77.86;100665.56;1687323;85;21034;-87
2021/08/27 04:34:23;;;;;;;7.95;5.17;;;;;;;14.12;77.85;100656.28;1686903;84;21030;-86
2021/08/27 04:36:50;;;;;;;6.70;4.58;;;;;;;14.13;77.84;100652.78;1687152;84;21055;-86
2021/08/27 04:39:17;;;;;;;5.78;4.20;;;;;;;14.15;77.81;100651.44;1687031;83;20980;-93
2021/08/27 04:41:57;;;;;;;6.30;4.78;;;;;;;14.16;77.80;100653.23;1686493;85;21011;-91
2021/08/27 04:44:28;;;;;;;8.88;5.33;;;;;;;14.20;77.80;100652.38;1686432;83;21039;-89
2021/08/27 04:46:55;;;;;;;9.18;4.85;;;;;;;14.27;77.81;100654.20;1687164;83;21038;-88
2021/08/27 04:49:22;;;;;;;6.22;4.85;;;;;;;14.32;77.69;100656.88;1687862;83;21448;-87
2021/08/27 04:51:49;;;;;;;7.97;4.50;;;;;;;14.35;77.64;100648.97;1687944;83;20970;-88
2021/08/27 04:54:20;;;;;;;8.05;5.03;;;;;;;14.41;77.63;100649.01;1686560;83;21902;-89
2021/08/27 04:56:50;;;;;;;9.33;3.90;;;;;;;14.47;77.53;100653.47;1686484;83;21464;-87
2021/08/27 04:59:19;;;;;;;6.20;3.27;;;;;;;14.48;77.31;100659.23;1692746;83;20978;-87
2021/08/27 05:03:01;;;;;;;7.97;3.47;;;;;;;14.50;77.40;100654.83;1715688;82;21484;-88
2021/08/27 05:05:42;;;;;;;9.10;5.05;;;;;;;14.51;77.25;100658.81;1632870;86;21003;-88
2021/08/27 05:08:15;;;;;;;7.33;3.65;;;;;;;14.56;77.28;100662.39;1659720;85;22475;-88
2021/08/27 05:10:45;;;;;;;6.13;3.73;;;;;;;14.63;77.38;100665.11;1640097;85;21058;-89
2021/08/27 05:13:13;;;;;;;8.13;3.22;;;;;;;14.70;77.33;100666.93;1631222;87;21024;-90
2021/08/27 05:15:51;;;;;;;5.42;3.42;;;;;;;14.76;77.32;100673.14;1617475;87;21074;-90
2021/08/27 05:18:19;;;;;;;5.95;4.15;;;;;;;14.84;77.27;100669.66;1633709;87;21070;-90
2021/08/27 05:20:46;;;;;;;7.95;4.20;;;;;;;14.87;77.14;100669.69;1645040;85;21735;-89
2021/08/27 05:23:13;;;;;;;8.18;4.40;;;;;;;14.90;77.11;100669.27;1637784;85;21572;-89
2021/08/27 05:25:39;;;;;;;7.75;3.70;;;;;;;14.94;77.11;100672.38;1637781;85;21078;-89
2021/08/27 05:28:06;;;;;;;9.98;3.75;;;;;;;14.99;77.14;100676.81;1636469;86;21685;-90
2021/08/27 05:30:33;;;;;;;6.33;3.62;;;;;;;15.03;77.05;100672.84;1664075;85;21070;-88
2021/08/27 05:32:59;;;;;;;7.90;3.80;;;;;;;15.08;77.03;100675.55;1672957;85;21834;-89
2021/08/27 05:35:26;;;;;;;5.45;3.20;;;;;;;15.11;76.91;100676.45;1663000;84;21094;-88
2021/08/27 05:37:53;;;;;;;8.73;4.45;;;;;;;15.13;76.84;100674.69;1688229;84;21071;-88
2021/08/27 05:40:19;;;;;;;11.73;8.63;;;;;;;15.16;76.78;100680.02;1687453;85;21004;-88
2021/08/27 05:42:46;;;;;;;5.20;3.70;;;;;;;15.23;76.86;100672.09;1692607;82;21040;-88
2021/08/27 05:45:14;;;;;;;6.12;3.00;;;;;;;15.33;76.91;100673.88;1691461;83;21795;-88
2021/08/27 05:47:42;;;;;;;5.65;3.15;;;;;;;15.44;76.87;100672.16;1691728;83;21033;-83
2021/08/27 05:50:10;;;;;;;7.70;3.25;;;;;;;15.57;76.82;100669.11;1688945;83;20990;-88
2021/08/27 05:53:17;;;;;;;6.28;3.00;;;;;;;15.68;76.74;100672.69;1688264;83;21029;-88
2021/08/27 05:56:14;;;;;;;5.75;2.77;;;;;;;15.79;76.49;100675.86;1523335;92;21171;-88
2021/08/27 06:02:31;;;;;;;6.45;4.15;;;;;;;15.90;76.10;100679.42;1393931;99;21085;-88
2021/08/27 06:05:51;;;;;;;6.12;3.10;;;;;;;16.01;76.07;100682.07;1299810;108;21163;-88
2021/08/27 06:28:18;;;;;;;5.03;3.60;;;;;;;17.77;75.00;100679.53;1242413;113;21167;-88
2021/08/27 06:30:48;;;;;;;6.75;3.37;;;;;;;18.18;74.33;100686.86;1248309;113;21245;-88
2021/08/27 06:33:21;;;;;;;4.97;2.58;;;;;;;18.46;74.05;100696.39;1261746;111;21860;-88
2021/08/27 06:35:51;;;;;;;5.03;1.77;;;;;;;18.72;73.49;100696.62;1277866;108;21214;-89
2021/08/27 06:38:24;;;;;;;2.30;1.30;;;;;;;18.86;72.54;100695.17;1321620;104;21188;-90
2021/08/27 06:40:58;;;;;;;3.02;1.50;;;;;;;18.92;72.06;100697.80;1372301;102;21591;-90
2021/08/27 06:43:29;;;;;;;2.98;1.27;;;;;;;19.09;71.73;100702.05;1464023;95;21100;-90
2021/08/27 06:45:56;;;;;;;3.80;1.37;;;;;;;19.08;70.96;100699.84;1448053;98;22103;-92
2021/08/27 06:48:23;;;;;;;2.98;1.27;;;;;;;19.08;70.70;100703.84;1496405;91;21046;-92
2021/08/27 06:50:53;;;;;;;4.35;1.40;;;;;;;19.02;69.89;100706.59;1563260;90;21076;-92
2021/08/27 06:53:20;;;;;;;2.95;1.37;;;;;;;18.86;69.98;100707.63;1592346;86;21100;-91
2021/08/27 06:55:50;;;;;;;1.47;0.80;;;;;;;18.91;70.23;100705.36;1605370;86;21093;-92
2021/08/27 06:58:16;;;;;;;2.55;1.00;;;;;;;18.97;70.07;100709.28;1571058;89;21857;-92
2021/08/27 07:00:44;;;;;;;3.12;1.47;;;;;;;19.05;69.82;100713.23;1604715;86;21046;-91
2021/08/27 07:03:11;;;;;;;2.30;1.30;;;;;;;19.14;69.65;100711.77;1619561;86;21483;-91
2021/08/27 07:05:38;;;;;;;4.83;1.77;;;;;;;19.28;69.26;100720.11;1618516;88;21617;-91
2021/08/27 07:08:05;;;;;;;3.92;1.10;;;;;;;19.32;68.76;100705.81;1649354;84;21007;-91
2021/08/27 07:10:31;;;;;;;2.10;1.30;;;;;;;19.35;68.67;100708.43;1728511;81;21903;-87
2021/08/27 07:13:02;;;;;;;2.67;0.80;;;;;;;19.49;68.72;100710.95;1728041;83;21092;-91
2021/08/27 07:15:28;;;;;;;3.90;0.90;;;;;;;19.58;68.38;100706.38;1728388;81;20996;-91
2021/08/27 07:17:58;;;;;;;3.72;1.10;;;;;;;19.62;68.08;100712.09;1671335;83;40130;-92
2021/08/27 07:20:25;;;;;;;2.95;1.50;;;;;;;19.54;67.59;100709.08;1716611;81;21063;-91
2021/08/27 07:22:51;;;;;;;2.80;0.90;;;;;;;19.35;67.60;100709.34;1709924;83;21776;-92
2021/08/27 07:25:18;;;;;;;1.22;0.80;;;;;;;19.28;67.75;100710.77;1695133;82;21014;-91
2021/08/27 07:27:45;;;;;;;4.60;3.10;;;;;;;19.18;67.56;100706.86;1662484;85;20986;-91
2021/08/27 07:30:14;;;;;;;6.22;3.15;;;;;;;19.14;67.84;100713.56;1648999;86;21064;-91
2021/08/27 07:32:40;;;;;;;4.53;1.57;;;;;;;19.12;67.62;100711.37;1688282;83;20992;-91
2021/08/27 07:35:08;;;;;;;4.22;1.30;;;;;;;19.15;67.75;100718.89;1690521;83;21737;-91
2021/08/27 07:37:37;;;;;;;1.42;0.90;;;;;;;19.27;67.64;100716.98;1689048;83;21041;-91
2021/08/27 07:40:11;;;;;;;1.65;0.70;;;;;;;19.40;67.62;100719.48;1689014;83;20994;-91
2021/08/27 07:42:38;;;;;;;1.22;0.90;;;;;;;19.61;67.49;100722.37;1689277;83;21473;-90
2021/08/27 07:45:06;;;;;;;2.40;1.07;;;;;;;19.83;67.30;100717.22;1689033;84;21061;-91
2021/08/27 07:47:32;;;;;;;1.87;0.80;;;;;;;19.99;67.13;100725.00;1689187;83;21736;-91
2021/08/27 07:49:59;;;;;;;2.65;0.80;;;;;;;20.24;67.00;100723.76;1689185;83;21558;-91
2021/08/27 07:52:26;;;;;;;2.35;0.80;;;;;;;20.22;65.87;100734.47;1689160;83;21005;-91
2021/08/27 07:54:55;;;;;;;1.45;1.00;;;;;;;20.24;66.06;100725.97;1689204;84;21014;-91
2021/08/27 07:57:21;;;;;;;1.85;0.70;;;;;;;20.43;66.22;100738.59;1721544;83;21042;-92
2021/08/27 07:59:47;;;;;;;1.90;0.95;;;;;;;20.69;66.03;100735.52;1693363;83;21898;-92
2021/08/27 08:02:14;;;;;;;1.42;0.95;;;;;;;20.96;65.45;100739.95;1688255;85;21540;-91
2021/08/27 08:04:42;;;;;;;1.42;0.90;;;;;;;21.13;64.75;100743.22;1688068;85;21437;-91
2021/08/27 08:07:09;;;;;;;2.10;0.98;;;;;;;21.25;64.16;100746.11;1687989;83;21501;-91
2021/08/27 08:09:36;;;;;;;4.10;1.37;;;;;;;21.36;64.21;100740.56;1673029;83;21039;-92
2021/08/27 08:12:03;;;;;;;2.98;0.78;;;;;;;21.44;63.46;100743.98;1687887;85;21767;-91
2021/08/27 08:14:29;;;;;;;1.45;0.65;;;;;;;21.41;63.10;100742.66;1685791;83;21013;-92
2021/08/27 08:16:58;;;;;;;1.17;0.65;;;;;;;21.52;62.95;100739.34;1673060;84;20972;-91
2021/08/27 08:19:24;;;;;;;1.37;0.82;;;;;;;21.52;62.95;100739.34;1708867;83;21907;-92
2021/08/27 08:21:51;;;;;;;1.72;0.93;;;;;;;21.59;63.00;100743.27;1725987;81;21063;-92
2021/08/27 08:24:21;;;;;;;3.58;1.30;;;;;;;21.67;62.95;100738.61;1695673;83;21731;-92
2021/08/27 08:26:46;;;;;;;1.77;1.17;;;;;;;21.76;62.89;100741.10;1687888;84;21060;-91
2021/08/27 08:29:13;;;;;;;1.82;0.80;;;;;;;21.90;62.08;100744.38;1688122;85;20996;-92
2021/08/27 08:31:40;;;;;;;1.57;1.10;;;;;;;21.65;61.71;100727.92;1688029;83;21478;-92
2021/08/27 08:34:07;;;;;;;2.08;1.50;;;;;;;21.65;61.71;100727.92;1705498;83;21015;-91
2021/08/27 08:36:33;;;;;;;1.98;1.20;;;;;;;21.64;61.31;100752.97;1726353;81;21749;-92
2021/08/27 08:39:02;;;;;;;2.15;1.20;;;;;;;21.55;61.12;100754.03;1725732;82;21039;-91
2021/08/27 08:41:29;;;;;;;5.03;1.02;;;;;;;21.43;61.12;100765.40;1728119;81;21050;-92
2021/08/27 08:43:55;;;;;;;3.62;1.15;;;;;;;21.43;61.12;100765.40;1726302;83;20998;-91
2021/08/27 08:46:22;;;;;;;2.62;1.10;;;;;;;21.38;61.18;100768.19;1726621;83;20991;-92
2021/08/27 08:48:49;;;;;;;1.70;1.00;;;;;;;21.03;60.83;100768.38;1712753;83;21710;-91
2021/08/27 08:51:20;;;;;;;2.00;1.25;;;;;;;21.03;60.83;100768.38;1689358;83;21598;-92
2021/08/27 08:53:49;;;;;;;1.90;1.25;;;;;;;20.89;60.88;100781.09;1689203;84;21025;-91
2021/08/27 08:56:18;;;;;;;1.72;1.40;;;;;;;20.70;61.21;100777.42;1704629;83;21003;-91
2021/08/27 08:58:45;;;;;;;2.90;1.50;;;;;;;20.68;61.45;100779.67;1660317;85;20993;-94
2021/08/27 09:01:17;;;;;;;2.60;1.37;;;;;;;20.59;61.48;100778.89;1636263;86;21752;-92
2021/08/27 09:03:40;;;;;;;3.70;2.15;;;;;;;20.44;61.64;100781.81;1628331;86;21013;-91
2021/08/27 09:06:10;;;;;;;2.75;1.65;;;;;;;20.38;61.75;100781.45;1649955;85;21022;-91
2021/08/27 09:08:38;;;;;;;5.80;1.70;;;;;;;20.28;61.87;100779.80;1695667;83;21546;-92
2021/08/27 09:11:21;;;;;;;2.80;1.72;;;;;;;20.13;61.91;100787.59;1694981;83;21457;-92
2021/08/27 09:13:50;;;;;;;5.05;1.90;;;;;;;19.87;61.94;100786.59;1692452;83;21314;-91
2021/08/27 09:16:17;;;;;;;5.45;2.37;;;;;;;19.69;62.58;100786.78;1692741;84;21908;-91
2021/08/27 09:18:49;;;;;;;3.35;1.90;;;;;;;19.57;62.95;100783.81;1692827;84;21041;-91
2021/08/27 09:21:45;;;;;;;3.35;1.95;;;;;;;19.43;63.16;100785.32;1692192;84;21047;-91
2021/08/27 09:24:24;;;;;;;4.25;2.00;;;;;;;19.27;63.27;100773.03;1703434;82;21033;-91
2021/08/27 09:26:56;;;;;;;4.22;1.75;;;;;;;19.10;63.62;100782.08;1689282;83;22463;-90
2021/08/27 09:29:46;;;;;;;2.45;1.50;;;;;;;19.04;64.25;100785.69;1689055;84;21018;-91
2021/08/27 09:32:29;;;;;;;3.83;1.80;;;;;;;19.06;64.50;100795.02;1689037;83;20978;-91
2021/08/27 09:35:09;;;;;;;4.03;1.87;;;;;;;19.10;64.79;100798.55;1692469;83;20981;-91
2021/08/27 09:37:47;;;;;;;4.37;2.20;;;;;;;19.08;65.06;100809.23;1697000;84;21052;-91
2021/08/27 09:40:23;;;;;;;4.67;2.17;;;;;;;19.02;65.71;100810.16;1668647;84;20999;-91
2021/08/27 09:42:51;;;;;;;5.65;2.20;;;;;;;18.89;66.13;100811.62;1688003;85;22653;-91
2021/08/27 09:45:41;;;;;;;5.08;2.35;;;;;;;18.70;66.42;100817.53;1687734;84;21018;-92
2021/08/27 09:48:12;;;;;;;4.12;2.22;;;;;;;18.50;66.75;100821.20;1678422;82;21073;-91
2021/08/27 09:50:41;;;;;;;5.53;2.47;;;;;;;18.34;67.16;100823.09;1698157;84;21464;-91
2021/08/27 09:53:09;;;;;;;7.22;6.05;;;;;;;18.26;67.60;100819.56;1676951;84;21731;-91
2021/08/27 09:55:37;;;;;;;12.33;9.20;;;;;;;18.21;67.77;100814.73;1698163;84;21039;-91
2021/08/27 09:58:10;;;;;;;8.80;7.12;;;;;;;18.14;67.92;100807.20;1696799;82;21022;-91
2021/08/27 10:00:39;;;;;;;12.23;5.45;;;;;;;18.10;68.15;100809.45;1699649;82;20979;-91
2021/08/27 10:03:23;;;;;;;7.00;5.42;;;;;;;18.11;68.46;100817.86;1713753;82;21012;-92
2021/08/27 10:05:52;;;;;;;8.55;6.20;;;;;;;18.14;68.71;100825.84;1710353;83;21746;-91
2021/08/27 10:08:36;;;;;;;3.22;2.60;;;;;;;18.15;68.96;100834.30;1691545;83;21009;-90
2021/08/27 10:11:21;;;;;;;6.87;3.02;;;;;;;18.12;68.98;100829.42;1687079;83;21028;-91
2021/08/27 10:13:48;;;;;;;4.40;2.00;;;;;;;18.08;68.98;100819.23;1665197;84;21428;-91
2021/08/27 10:16:15;;;;;;;2.08;1.55;;;;;;;18.02;68.75;100817.48;1697970;82;21051;-92
2021/08/27 10:18:41;;;;;;;2.20;1.80;;;;;;;17.96;68.69;100812.19;1692578;83;22549;-91
2021/08/27 10:21:08;;;;;;;2.25;1.60;;;;;;;17.88;68.68;100812.19;1676188;82;21068;-92
2021/08/27 10:23:38;;;;;;;3.33;1.72;;;;;;;17.86;68.79;100821.09;1697773;82;21050;-91
2021/08/27 10:26:17;;;;;;;2.65;1.95;;;;;;;17.82;68.84;100831.28;1666003;84;21112;-91
2021/08/27 10:28:44;;;;;;;4.00;2.35;;;;;;;17.80;69.03;100833.95;1694898;83;21041;-91
2021/08/27 10:31:11;;;;;;;2.83;1.45;;;;;;;17.86;69.32;100834.41;1691298;82;21731;-91
2021/08/27 10:33:46;;;;;;;25.82;4.60;;;;;;;18.02;69.34;100819.27;1687830;85;21007;-91
2021/08/27 10:36:27;;;;;;;28.25;5.00;;;;;;;18.23;69.37;100814.27;1699442;82;20996;-91
2021/08/27 10:38:54;;;;;;;19.57;3.67;;;;;;;18.55;69.18;100819.85;1698964;84;21015;-91
2021/08/27 10:41:27;;;;;;;7.10;1.80;;;;;;;18.93;69.02;100822.70;1692311;83;21495;-91
2021/08/27 10:44:01;;;;;;;2.45;1.25;;;;;;;19.25;68.51;100826.87;1698464;84;21805;-91
2021/08/27 10:46:48;;;;;;;2.83;1.40;;;;;;;19.48;67.86;100829.30;1667794;84;21024;-91
2021/08/27 10:49:37;;;;;;;2.92;1.67;;;;;;;19.67;67.61;100821.97;1628248;87;21495;-91
2021/08/27 10:52:36;;;;;;;4.90;1.37;;;;;;;19.85;67.14;100816.91;1649759;86;21507;-92
2021/08/27 10:55:12;;;;;;;5.90;1.75;;;;;;;20.00;66.86;100820.26;1642230;87;21043;-91
2021/08/27 10:57:48;;;;;;;4.62;3.65;;;;;;;20.13;66.05;100816.98;1638295;86;21912;-91
2021/08/27 11:00:31;;;;;;;4.03;1.45;;;;;;;20.11;65.74;100805.89;1612233;86;21003;-91
2021/08/27 11:02:57;;;;;;;5.53;1.50;;;;;;;20.19;65.63;100800.85;1643187;86;21568;-91
2021/08/27 11:05:42;;;;;;;12.70;2.90;;;;;;;20.39;65.61;100793.02;1625512;87;21074;-91
2021/08/27 11:08:13;;;;;;;10.40;1.82;;;;;;;20.57;65.44;100787.39;1643473;86;21067;-91
2021/08/27 11:10:42;;;;;;;5.47;1.95;;;;;;;20.74;65.19;100796.52;1632764;87;21748;-91
2021/08/27 11:13:12;;;;;;;4.75;2.00;;;;;;;20.85;65.00;100798.12;1621524;87;21091;-91
2021/08/27 11:15:41;;;;;;;3.80;1.47;;;;;;;20.87;65.10;100797.64;1615026;87;21051;-91
2021/08/27 11:18:24;;;;;;;3.58;1.90;;;;;;;20.96;65.06;100807.72;1582485;88;21353;-91
2021/08/27 11:20:52;;;;;;;3.90;1.85;;;;;;;20.96;64.62;100811.73;1606011;88;21027;-93
2021/08/27 11:23:22;;;;;;;3.42;1.50;;;;;;;20.82;64.45;100819.13;1633246;85;21090;-91
2021/08/27 11:26:04;;;;;;;2.22;1.70;;;;;;;20.71;64.41;100821.97;1680898;84;21096;-91
2021/08/27 11:28:32;;;;;;;6.20;2.08;;;;;;;20.55;64.20;100825.31;1689635;83;21462;-91
2021/08/27 11:31:09;;;;;;;4.20;1.80;;;;;;;20.34;64.67;100828.28;1720152;82;20964;-91
2021/08/27 11:33:48;;;;;;;2.55;1.67;;;;;;;20.23;64.95;100828.42;1727564;82;21004;-91
2021/08/27 11:36:17;;;;;;;4.30;1.92;;;;;;;20.23;65.30;100830.22;1728151;83;21721;-90
2021/08/27 11:38:50;;;;;;;5.55;2.00;;;;;;;20.22;65.26;100833.36;1688066;83;21106;-90
2021/08/27 11:41:17;;;;;;;5.92;1.82;;;;;;;20.23;65.49;100829.76;1695605;83;21033;-90
2021/08/27 11:43:48;;;;;;;5.08;1.57;;;;;;;20.28;65.72;100831.92;1688456;83;21446;-91
2021/08/27 11:46:15;;;;;;;3.60;1.80;;;;;;;20.29;65.73;100835.05;1705300;82;21478;-90
2021/08/27 11:48:42;;;;;;;5.05;1.60;;;;;;;20.24;65.41;100826.66;1721751;83;22430;-90
2021/08/27 11:51:14;;;;;;;7.83;1.70;;;;;;;20.26;65.47;100835.08;1662606;82;21057;-90
2021/08/27 11:53:41;;;;;;;1.50;1.32;;;;;;;20.24;65.52;100836.89;1660642;84;21012;-89
2021/08/27 11:56:07;;;;;;;2.17;1.42;;;;;;;20.15;65.07;100836.55;1664147;84;21055;-90
2021/08/27 11:58:44;;;;;;;2.17;1.35;;;;;;;20.05;65.10;100835.38;1646914;84;21050;-90
2021/08/27 12:01:28;;;;;;;5.65;1.65;;;;;;;20.00;65.28;100837.63;1667024;84;21926;-90
2021/08/27 12:03:55;;;;;;;3.98;1.95;;;;;;;19.92;65.31;100839.52;1688477;83;21017;-88
2021/08/27 12:06:22;;;;;;;5.45;1.60;;;;;;;19.89;65.44;100838.20;1692547;83;21008;-89
2021/08/27 12:08:51;;;;;;;3.25;1.60;;;;;;;19.85;65.52;100839.62;1666859;84;21497;-88